createdAt,value
2018-02-23T00:00:00.710Z,97776.13
2018-02-23T00:02:28.968Z,97782.33
2018-02-23T00:04:58.005Z,97779.02
2018-02-23T00:07:26.264Z,97785.33
2018-02-23T00:09:55.308Z,97768.77
2018-02-23T00:12:23.555Z,97771.09
2018-02-23T00:14:52.601Z,97770.73
2018-02-23T00:17:20.872Z,97770.63
2018-02-23T00:19:49.143Z,97772.91
2018-02-23T00:22:18.163Z,97770.22
2018-02-23T00:24:46.448Z,97767.06
2018-02-23T00:27:15.478Z,97772.91
2018-02-23T00:29:43.768Z,97771.72
2018-02-23T00:32:12.030Z,97770.84
2018-02-23T00:34:41.082Z,97775.45
2018-02-23T00:37:09.350Z,97775.99
2018-02-23T00:39:37.612Z,97764.78
2018-02-23T00:42:06.644Z,97768.48
2018-02-23T00:44:34.914Z,97762.22
2018-02-23T00:47:03.936Z,97775.86
2018-02-23T00:49:32.221Z,97768.64
2018-02-23T00:52:00.471Z,97762.57
2018-02-23T00:54:28.743Z,97771.34
2018-02-23T00:56:57.008Z,97768.20
2018-02-23T00:59:25.287Z,97768.34
2018-02-23T01:01:53.544Z,97758.14
2018-02-23T01:04:22.580Z,97771.85
2018-02-23T01:06:50.842Z,97771.69
2018-02-23T01:09:19.884Z,97764.12
2018-02-23T01:11:48.159Z,97769.97
2018-02-23T01:14:16.435Z,97765.48
2018-02-23T01:16:45.455Z,97759.03
2018-02-23T01:19:14.498Z,97751.52
2018-02-23T01:21:42.767Z,97755.95
2018-02-23T01:24:11.042Z,97755.09
2018-02-23T01:26:39.301Z,97749.40
2018-02-23T01:29:08.340Z,97748.09
2018-02-23T01:31:36.592Z,97750.54
2018-02-23T01:34:04.861Z,97748.04
2018-02-23T01:36:33.116Z,97742.38
2018-02-23T01:39:01.389Z,97735.84
2018-02-23T01:41:29.683Z,97746.22
2018-02-23T01:43:57.965Z,97748.47
2018-02-23T01:46:26.996Z,97745.31
2018-02-23T01:48:55.269Z,97741.07
2018-02-23T01:51:23.528Z,97744.31
2018-02-23T01:53:51.819Z,97744.17
2018-02-23T01:56:20.080Z,97740.02
2018-02-23T01:58:49.112Z,97739.22
2018-02-23T02:01:17.374Z,97736.61
2018-02-23T02:03:45.641Z,97723.80
2018-02-23T02:06:13.946Z,97729.77
2018-02-23T02:08:42.730Z,97732.88
2018-02-23T02:11:10.996Z,97729.56
2018-02-23T02:13:40.048Z,97720.88
2018-02-23T02:16:08.320Z,97726.75
2018-02-23T02:18:36.571Z,97721.05
2018-02-23T02:21:04.844Z,97721.40
2018-02-23T02:23:33.096Z,97713.42
2018-02-23T02:26:01.380Z,97712.14
2018-02-23T02:28:29.642Z,97708.72
2018-02-23T02:30:57.920Z,97703.83
2018-02-23T02:33:26.197Z,97711.80
2018-02-23T02:35:55.224Z,97712.06
2018-02-23T02:38:23.481Z,97709.75
2018-02-23T02:40:51.806Z,97710.58
2018-02-23T02:43:20.068Z,97715.52
2018-02-23T02:45:49.104Z,97708.64
2018-02-23T02:48:17.369Z,97699.37
2018-02-23T02:50:46.429Z,97702.24
2018-02-23T02:53:14.701Z,97704.61
2018-02-23T02:55:43.015Z,97699.42
2018-02-23T02:58:11.287Z,97698.87
2018-02-23T03:00:39.553Z,97699.45
2018-02-23T03:03:07.806Z,97702.52
2018-02-23T03:05:36.074Z,97713.22
2018-02-23T03:08:04.337Z,97703.73
2018-02-23T03:10:32.604Z,97702.27
2018-02-23T03:13:00.875Z,97711.16
2018-02-23T03:15:29.963Z,97705.77
2018-02-23T03:17:58.237Z,97700.43
2018-02-23T03:20:26.517Z,97707.50
2018-02-23T03:22:54.783Z,97706.86
2018-02-23T03:25:23.063Z,97708.21
2018-02-23T03:27:51.315Z,97707.92
2018-02-23T03:30:19.581Z,97707.59
2018-02-23T03:32:47.840Z,97702.11
2018-02-23T03:35:16.113Z,97709.13
2018-02-23T03:37:44.368Z,97700.48
2018-02-23T03:40:13.422Z,97706.27
2018-02-23T03:42:41.685Z,97705.05
2018-02-23T03:45:10.730Z,97710.22
2018-02-23T03:47:38.981Z,97704.84
2018-02-23T03:50:08.389Z,97698.15
2018-02-23T03:52:36.635Z,97700.75
2018-02-23T03:55:04.916Z,97699.16
2018-02-23T03:57:33.177Z,97720.15
2018-02-23T04:00:01.417Z,97708.58
2018-02-23T04:02:29.691Z,97707.48
2018-02-23T04:04:58.705Z,97715.58
2018-02-23T04:07:26.980Z,97707.06
2018-02-23T04:09:55.237Z,97711.94
2018-02-23T04:12:23.592Z,97716.27
2018-02-23T04:14:51.844Z,97714.72
2018-02-23T04:17:20.152Z,97714.98
2018-02-23T04:19:48.425Z,97710.53
2018-02-23T04:22:16.708Z,97717.94
2018-02-23T04:24:44.978Z,97716.70
2018-02-23T04:27:13.292Z,97711.67
2018-02-23T04:29:41.581Z,97712.96
2018-02-23T04:32:09.843Z,97707.83
2018-02-23T04:34:38.092Z,97718.59
2018-02-23T04:37:06.360Z,97722.51
2018-02-23T04:39:34.616Z,97724.70
2018-02-23T04:42:02.879Z,97721.89
2018-02-23T04:44:32.644Z,97720.56
2018-02-23T04:47:00.920Z,97725.40
2018-02-23T04:49:29.176Z,97724.23
2018-02-23T04:51:57.454Z,97715.36
2018-02-23T04:54:25.720Z,97715.77
2018-02-23T04:56:53.995Z,97725.00
2018-02-23T04:59:22.247Z,97721.17
2018-02-23T05:01:50.556Z,97724.00
2018-02-23T05:04:18.807Z,97727.42
2018-02-23T05:06:47.878Z,97727.91
2018-02-23T05:09:16.141Z,97721.24
2018-02-23T05:11:44.432Z,97718.97
2018-02-23T05:14:12.823Z,97721.24
2018-02-23T05:16:41.094Z,97720.58
2018-02-23T05:19:09.351Z,97713.66
2018-02-23T05:21:37.630Z,97721.73
2018-02-23T05:24:05.888Z,97719.86
2018-02-23T05:26:34.143Z,97718.08
2018-02-23T05:29:03.192Z,97720.35
2018-02-23T05:31:31.470Z,97718.30
2018-02-23T05:33:59.741Z,97711.56
2018-02-23T05:36:28.013Z,97717.73
2018-02-23T05:38:57.028Z,97723.02
2018-02-23T05:41:26.073Z,97723.64
2018-02-23T05:43:54.434Z,97727.19
2018-02-23T05:46:22.699Z,97733.91
2018-02-23T05:48:50.950Z,97720.82
2018-02-23T05:51:19.260Z,97722.53
2018-02-23T05:53:47.516Z,97720.07
2018-02-23T05:56:15.791Z,97718.03
2018-02-23T05:58:44.069Z,97725.62
2018-02-23T06:01:12.382Z,97724.31
2018-02-23T06:03:40.682Z,97734.45
2018-02-23T06:06:08.931Z,97723.95
2018-02-23T06:08:37.962Z,97736.01
2018-02-23T06:11:06.244Z,97736.14
2018-02-23T06:13:34.514Z,97732.83
2018-02-23T06:16:09.127Z,97735.38
2018-02-23T06:18:43.000Z,97737.42
2018-02-23T06:21:11.305Z,97739.81
2018-02-23T06:23:39.582Z,97745.24
2018-02-23T06:26:07.841Z,97752.34
2018-02-23T06:28:37.636Z,97749.33
2018-02-23T06:31:05.943Z,97754.42
2018-02-23T06:33:34.208Z,97755.16
2018-02-23T06:36:02.483Z,97752.91
2018-02-23T06:38:30.772Z,97756.88
2018-02-23T06:40:59.047Z,97755.67
2018-02-23T06:43:27.323Z,97756.75
2018-02-23T06:45:55.592Z,97763.81
2018-02-23T06:48:24.632Z,97759.43
2018-02-23T06:50:52.879Z,97762.36
2018-02-23T06:53:22.688Z,97763.30
2018-02-23T06:55:50.967Z,97767.33
2018-02-23T06:58:19.248Z,97763.23
2018-02-23T07:00:47.540Z,97767.47
2018-02-23T07:03:15.811Z,97763.20
2018-02-23T07:05:44.092Z,97769.61
2018-02-23T07:08:12.465Z,97774.70
2018-02-23T07:10:41.565Z,97766.84
2018-02-23T07:13:09.888Z,97763.42
2018-02-23T07:15:38.144Z,97770.59
2018-02-23T07:18:07.185Z,97765.97
2018-02-23T07:20:36.231Z,97764.31
2018-02-23T07:23:04.501Z,97767.97
2018-02-23T07:25:32.776Z,97769.06
2018-02-23T07:28:01.828Z,97776.66
2018-02-23T07:30:30.887Z,97778.77
2018-02-23T07:32:59.160Z,97778.70
2018-02-23T07:35:28.209Z,97768.77
2018-02-23T07:37:56.496Z,97781.15
2018-02-23T07:40:24.836Z,97771.67
2018-02-23T07:42:53.211Z,97771.62
2018-02-23T07:45:22.408Z,97773.01
2018-02-23T07:47:50.880Z,97781.72
2018-02-23T07:50:19.272Z,97777.41
2018-02-23T07:52:48.401Z,97776.28
2018-02-23T07:55:16.725Z,97772.20
2018-02-23T07:57:45.904Z,97777.92
2018-02-23T08:00:14.274Z,97781.72
2018-02-23T08:02:42.599Z,97781.42
2018-02-23T08:05:12.360Z,97786.23
2018-02-23T08:07:40.703Z,97799.08
2018-02-23T08:10:10.119Z,97803.57
2018-02-23T08:12:39.406Z,97809.09
2018-02-23T08:15:11.114Z,97806.89
2018-02-23T08:17:40.221Z,97795.50
2018-02-23T08:20:09.415Z,97801.75
2018-02-23T08:22:37.849Z,97795.09
2018-02-23T08:25:06.142Z,97802.68
2018-02-23T08:27:35.125Z,97802.83
2018-02-23T08:30:04.261Z,97802.19
2018-02-23T08:32:32.603Z,97800.86
2018-02-23T08:35:02.459Z,97804.13
2018-02-23T08:37:30.893Z,97794.12
2018-02-23T08:39:59.279Z,97793.71
2018-02-23T08:42:27.560Z,97794.36
2018-02-23T08:44:55.872Z,97797.63
2018-02-23T08:47:24.249Z,97799.73
2018-02-23T08:49:52.579Z,97795.30
2018-02-23T08:52:20.855Z,97796.14
2018-02-23T08:54:49.321Z,97794.78
2018-02-23T08:57:17.800Z,97793.78
2018-02-23T08:59:46.344Z,97805.34
2018-02-23T09:02:14.832Z,97807.85
2018-02-23T09:04:43.215Z,97799.45
2018-02-23T09:07:11.831Z,97800.58
2018-02-23T09:09:40.164Z,97804.90
2018-02-23T09:12:08.916Z,97796.40
2018-02-23T09:14:37.479Z,97811.39
2018-02-23T09:17:05.804Z,97810.53
2018-02-23T09:19:34.287Z,97801.14
2018-02-23T09:22:02.622Z,97803.62
2018-02-23T09:24:31.004Z,97809.91
2018-02-23T09:27:00.065Z,97813.36
2018-02-23T09:29:28.401Z,97824.02
2018-02-23T09:31:56.719Z,97826.80
2018-02-23T09:34:46.139Z,97818.17
2018-02-23T09:37:14.488Z,97819.81
2018-02-23T09:39:42.820Z,97811.91
2018-02-23T09:42:11.148Z,97817.92
2018-02-23T09:44:40.341Z,97817.44
2018-02-23T09:47:08.636Z,97813.37
2018-02-23T09:49:36.983Z,97809.31
2018-02-23T09:52:05.280Z,97813.25
2018-02-23T09:54:33.566Z,97814.95
2018-02-23T09:57:01.845Z,97817.12
2018-02-23T09:59:30.170Z,97821.07
2018-02-23T10:01:58.506Z,97821.73
2018-02-23T10:04:26.828Z,97822.70
2018-02-23T10:06:55.283Z,97825.88
2018-02-23T10:09:24.369Z,97821.41
2018-02-23T10:11:52.645Z,97823.20
2018-02-23T10:14:20.968Z,97823.18
2018-02-23T10:16:50.015Z,97821.31
2018-02-23T10:19:18.386Z,97834.11
2018-02-23T10:21:47.362Z,97830.22
2018-02-23T10:24:16.499Z,97827.55
2018-02-23T10:26:44.800Z,97831.37
2018-02-23T10:29:13.223Z,97827.71
2018-02-23T10:31:41.624Z,97828.45
2018-02-23T10:34:09.931Z,97824.93
2018-02-23T10:36:38.982Z,97832.94
2018-02-23T10:39:08.168Z,97841.55
2018-02-23T10:41:36.518Z,97837.34
2018-02-23T10:44:04.855Z,97834.63
2018-02-23T10:46:33.261Z,97833.67
2018-02-23T10:49:01.729Z,97833.05
2018-02-23T10:51:30.910Z,97827.52
2018-02-23T10:53:59.559Z,97828.58
2018-02-23T10:56:27.947Z,97821.09
2018-02-23T10:58:57.044Z,97828.63
2018-02-23T11:01:25.429Z,97821.60
2018-02-23T11:03:54.781Z,97823.88
2018-02-23T11:06:23.397Z,97823.12
2018-02-23T11:08:51.729Z,97834.22
2018-02-23T11:11:20.014Z,97827.22
2018-02-23T11:13:49.352Z,97824.69
2018-02-23T11:16:17.794Z,97821.05
2018-02-23T11:18:46.214Z,97814.42
2018-02-23T11:21:15.605Z,97818.09
2018-02-23T11:23:43.912Z,97817.41
2018-02-23T11:26:13.030Z,97806.68
2018-02-23T11:28:42.197Z,97802.92
2018-02-23T11:31:10.506Z,97796.45
2018-02-23T11:33:38.941Z,97804.03
2018-02-23T11:36:07.452Z,97794.48
2018-02-23T11:38:35.760Z,97792.02
2018-02-23T11:41:04.053Z,97787.02
2018-02-23T11:43:32.404Z,97780.14
2018-02-23T11:46:00.865Z,97776.50
2018-02-23T11:48:29.195Z,97767.47
2018-02-23T11:50:57.480Z,97770.20
2018-02-23T11:53:25.934Z,97765.94
2018-02-23T11:55:54.359Z,97758.69
2018-02-23T11:58:22.661Z,97758.73
2018-02-23T12:00:51.033Z,97761.69
2018-02-23T12:03:19.495Z,97769.32
2018-02-23T12:05:47.780Z,97778.53
2018-02-23T12:08:16.347Z,97760.78
2018-02-23T12:10:44.843Z,97759.76
2018-02-23T12:13:13.487Z,97760.10
2018-02-23T12:15:42.628Z,97764.75
2018-02-23T12:18:10.897Z,97767.91
2018-02-23T12:20:39.225Z,97754.05
2018-02-23T12:23:07.597Z,97760.64
2018-02-23T12:25:36.007Z,97768.94
2018-02-23T12:28:04.269Z,97768.09
2018-02-23T12:30:32.776Z,97762.66
2018-02-23T12:33:01.053Z,97761.91
2018-02-23T12:35:29.362Z,97761.59
2018-02-23T12:37:58.605Z,97761.77
2018-02-23T12:40:27.904Z,97759.17
2018-02-23T12:42:56.213Z,97763.77
2018-02-23T12:45:24.616Z,97757.37
2018-02-23T12:47:52.890Z,97760.91
2018-02-23T12:50:21.218Z,97749.39
2018-02-23T12:52:50.304Z,97753.17
2018-02-23T12:55:18.911Z,97750.92
2018-02-23T12:57:48.010Z,97748.18
2018-02-23T13:00:16.309Z,97743.02
2018-02-23T13:02:45.436Z,97742.70
2018-02-23T13:05:14.482Z,97740.38
2018-02-23T13:07:42.880Z,97754.61
2018-02-23T13:10:11.925Z,97745.44
2018-02-23T13:12:41.006Z,97752.05
2018-02-23T13:15:14.761Z,97743.55
2018-02-23T13:17:43.888Z,97742.47
2018-02-23T13:20:12.404Z,97731.27
2018-02-23T13:22:40.741Z,97732.75
2018-02-23T13:25:09.185Z,97731.68
2018-02-23T13:27:37.472Z,97730.11
2018-02-23T13:30:06.008Z,97731.86
2018-02-23T13:32:34.298Z,97720.20
2018-02-23T13:35:02.629Z,97717.14
2018-02-23T13:37:31.025Z,97723.83
2018-02-23T13:39:59.292Z,97719.69
2018-02-23T13:42:28.339Z,97714.63
2018-02-23T13:44:56.629Z,97717.33
2018-02-23T13:47:24.950Z,97726.45
2018-02-23T13:49:53.229Z,97733.56
2018-02-23T13:52:22.370Z,97723.34
2018-02-23T13:54:52.683Z,97726.03
2018-02-23T13:57:21.723Z,97722.36
2018-02-23T13:59:50.748Z,97722.53
2018-02-23T14:02:19.028Z,97721.28
2018-02-23T14:04:47.374Z,97719.52
2018-02-23T14:07:21.134Z,97713.53
2018-02-23T14:09:50.152Z,97723.24
2018-02-23T14:12:18.450Z,97707.73
2018-02-23T14:14:47.495Z,97716.31
2018-02-23T14:17:15.927Z,97708.38
2018-02-23T14:19:44.347Z,97709.34
2018-02-23T14:22:12.882Z,97721.10
2018-02-23T14:24:41.214Z,97710.41
2018-02-23T14:27:09.534Z,97710.30
2018-02-23T14:29:37.807Z,97705.42
2018-02-23T14:32:06.104Z,97705.50
2018-02-23T14:34:34.497Z,97714.66
2018-02-23T15:55:23.717Z,97693.23
2018-02-23T15:57:56.812Z,97695.23
2018-02-23T16:00:25.388Z,97695.47
2018-02-23T16:02:53.937Z,97691.80
2018-02-23T16:05:23.067Z,97700.89
2018-02-23T16:07:52.616Z,97695.11
2018-02-23T16:10:22.912Z,97700.89
2018-02-23T16:12:52.579Z,97704.91
2018-02-23T16:15:21.326Z,97705.05
2018-02-23T16:17:52.045Z,97715.83
2018-02-23T16:20:20.482Z,97712.58
2018-02-23T16:22:49.591Z,97709.34
2018-02-23T16:25:18.012Z,97713.40
2018-02-23T16:27:46.864Z,97709.80
2018-02-23T16:30:15.378Z,97711.20
2018-02-23T16:32:44.181Z,97715.95
2018-02-23T16:35:12.668Z,97721.08
2018-02-23T16:37:41.950Z,97728.30
2018-02-23T16:40:10.257Z,97723.25
2018-02-23T16:42:38.560Z,97720.38
2018-02-23T16:45:06.954Z,97723.23
2018-02-23T16:47:35.285Z,97723.05
2018-02-23T16:50:03.647Z,97721.73
2018-02-23T16:52:32.755Z,97720.43
2018-02-23T16:55:01.980Z,97717.21
2018-02-23T16:57:31.354Z,97722.71
2018-02-23T17:00:00.805Z,97735.50
2018-02-23T17:02:29.460Z,97735.13
2018-02-23T17:04:58.212Z,97750.83
2018-02-23T17:07:26.957Z,97734.84
2018-02-23T17:09:55.409Z,97743.73
2018-02-23T17:12:23.936Z,97745.86
2018-02-23T17:14:53.246Z,97761.52
2018-02-23T17:17:22.855Z,97759.17
2018-02-23T17:19:51.612Z,97762.59
2018-02-23T17:22:21.007Z,97759.47
2018-02-23T17:24:49.534Z,97761.52
2018-02-23T17:27:19.184Z,97755.83
2018-02-23T17:29:47.870Z,97756.64
2018-02-23T17:32:16.688Z,97765.98
2018-02-23T17:34:45.640Z,97751.15
2018-02-23T17:37:14.775Z,97765.49
2018-02-23T17:39:43.727Z,97762.70
2018-02-23T17:42:12.574Z,97762.76
2018-02-23T17:44:42.175Z,97762.27
2018-02-23T17:47:11.815Z,97759.78
2018-02-23T17:49:41.154Z,97750.92
2018-02-23T17:52:09.706Z,97759.69
2018-02-23T17:54:38.504Z,97766.25
2018-02-23T17:57:08.401Z,97771.48
2018-02-23T17:59:37.016Z,97774.00
2018-02-23T18:02:05.420Z,97764.59
2018-02-23T18:04:34.205Z,97765.17
2018-02-23T18:07:02.801Z,97761.69
2018-02-23T18:09:31.527Z,97765.35
2018-02-23T18:12:01.518Z,97766.25
2018-02-23T18:14:30.336Z,97768.91
2018-02-23T18:16:59.594Z,97764.24
2018-02-23T18:19:28.079Z,97769.05
2018-02-23T18:21:57.576Z,97766.84
2018-02-23T18:24:26.164Z,97765.98
2018-02-23T18:26:54.560Z,97766.58
2018-02-23T18:29:23.546Z,97762.42
2018-02-23T18:31:52.065Z,97759.53
2018-02-23T18:34:21.233Z,97762.42
2018-02-23T18:36:49.582Z,97770.66
2018-02-23T18:39:18.001Z,97760.29
2018-02-23T18:41:46.371Z,97763.73
2018-02-23T18:44:15.568Z,97767.39
2018-02-23T18:46:43.951Z,97775.34
2018-02-23T18:49:12.475Z,97773.69
2018-02-23T18:51:40.833Z,97778.90
2018-02-23T18:54:09.189Z,97774.18
2018-02-23T18:56:37.537Z,97772.67
2018-02-23T18:59:06.700Z,97769.14
2018-02-23T19:01:35.134Z,97765.24
2018-02-23T19:04:04.396Z,97774.71
2018-02-23T19:06:32.692Z,97764.84
2018-02-23T19:09:01.080Z,97794.39
2018-02-23T19:11:29.763Z,97759.04
2018-02-23T19:13:58.089Z,97766.20
2018-02-23T19:16:26.402Z,97758.28
2018-02-23T19:18:55.452Z,97762.80
2018-02-23T19:21:23.864Z,97762.80
2018-02-23T19:23:52.534Z,97753.06
2018-02-23T19:26:20.826Z,97758.34
2018-02-23T19:28:49.235Z,97759.91
2018-02-23T19:31:18.661Z,97752.22
2018-02-23T19:33:47.198Z,97758.69
2018-02-23T19:36:15.614Z,97759.81
2018-02-23T19:38:44.262Z,97761.63
2018-02-23T19:41:12.895Z,97761.59
2018-02-23T19:43:42.135Z,97770.19
2018-02-23T19:46:10.704Z,97784.52
2018-02-23T19:48:39.157Z,97777.50
2018-02-23T19:51:07.518Z,97774.62
2018-02-23T19:53:35.895Z,97776.17
2018-02-23T19:56:04.224Z,97778.16
2018-02-23T19:58:32.664Z,97778.02
2018-02-23T20:01:01.087Z,97779.20
2018-02-23T20:03:29.390Z,97777.05
2018-02-23T20:05:57.738Z,97776.86
2018-02-23T20:08:26.860Z,97785.89
2018-02-23T20:10:55.360Z,97781.74
2018-02-23T20:13:23.790Z,97777.44
2018-02-23T20:15:52.186Z,97783.08
2018-02-23T20:18:20.554Z,97785.23
2018-02-23T20:20:49.086Z,97788.11
2018-02-23T20:23:17.582Z,97789.70
2018-02-23T20:25:46.196Z,97797.60
2018-02-23T20:28:15.404Z,97806.06
2018-02-23T20:30:44.606Z,97801.92
2018-02-23T20:33:13.716Z,97804.25
2018-02-23T20:35:42.124Z,97804.98
2018-02-23T20:38:10.459Z,97800.05
2018-02-23T20:40:38.737Z,97804.73
2018-02-23T20:43:06.995Z,97808.08
2018-02-23T20:45:36.024Z,97809.00
2018-02-23T20:48:04.282Z,97802.53
2018-02-23T20:50:33.362Z,97806.02
2018-02-23T20:53:01.625Z,97805.25
2018-02-23T20:55:29.913Z,97794.48
2018-02-23T20:57:58.170Z,97796.18
2018-02-23T21:00:27.213Z,97790.97
2018-02-23T21:02:55.496Z,97793.20
2018-02-23T21:05:23.781Z,97792.27
2018-02-23T21:07:52.068Z,97797.05
2018-02-23T21:10:20.369Z,97795.65
2018-02-23T21:12:48.657Z,97805.77
2018-02-23T21:15:16.913Z,97805.31
2018-02-23T21:17:45.956Z,97804.63
2018-02-23T21:20:14.252Z,97805.25
2018-02-23T21:22:42.540Z,97805.65
2018-02-23T21:25:10.827Z,97811.73
2018-02-23T21:27:39.095Z,97810.72
2018-02-23T21:30:07.356Z,97813.14
2018-02-23T21:32:36.407Z,97806.13
2018-02-23T21:35:04.693Z,97806.91
2018-02-23T21:37:33.090Z,97803.39
2018-02-23T21:40:02.032Z,97802.69
2018-02-23T21:42:31.245Z,97801.97
2018-02-23T21:44:59.491Z,97808.20
2018-02-23T21:47:27.900Z,97801.38
2018-02-23T21:49:56.156Z,97810.25
2018-02-23T21:52:24.422Z,97804.61
2018-02-23T21:54:53.439Z,97806.32
2018-02-23T21:57:21.720Z,97809.19
2018-02-23T21:59:50.745Z,97800.59
2018-02-23T22:02:19.252Z,97809.50
2018-02-23T22:04:47.594Z,97798.84
2018-02-23T22:07:16.740Z,97799.94
2018-02-23T22:09:45.152Z,97797.61
2018-02-23T22:12:13.471Z,97802.40
2018-02-23T22:14:41.939Z,97797.86
2018-02-23T22:17:10.240Z,97796.02
2018-02-23T22:19:38.690Z,97809.34
2018-02-23T22:22:07.160Z,97811.28
2018-02-23T22:24:36.362Z,97803.09
2018-02-23T22:27:05.656Z,97804.45
2018-02-23T22:29:33.962Z,97805.42
2018-02-23T22:32:02.330Z,97800.84
2018-02-23T22:34:30.696Z,97808.94
2018-02-23T22:37:00.476Z,97807.70
2018-02-23T22:39:28.756Z,97806.93
2018-02-23T22:41:57.050Z,97806.24
2018-02-23T22:44:25.475Z,97808.82
2018-02-23T22:46:53.804Z,97809.80
2018-02-23T22:49:22.569Z,97826.19
2018-02-23T22:51:50.876Z,97812.78
2018-02-23T22:54:19.253Z,97807.70
2018-02-23T22:56:47.640Z,97813.87
2018-02-23T22:59:16.029Z,97811.80
2018-02-23T23:01:44.400Z,97812.48
2018-02-23T23:04:13.531Z,97810.84
2018-02-23T23:06:42.077Z,97809.12
2018-02-23T23:09:10.490Z,97811.92
2018-02-23T23:11:38.897Z,97809.55
2018-02-23T23:14:08.002Z,97815.30
2018-02-23T23:16:37.047Z,97819.50
2018-02-23T23:19:05.304Z,97809.75
2018-02-23T23:21:34.372Z,97813.69
2018-02-23T23:24:02.701Z,97815.09
2018-02-23T23:26:31.737Z,97813.30
2018-02-23T23:29:00.074Z,97812.83
2018-02-23T23:31:28.324Z,97813.43
2018-02-23T23:33:56.601Z,97814.42
2018-02-23T23:36:25.580Z,97814.83
2018-02-23T23:38:54.627Z,97812.77
2018-02-23T23:41:22.911Z,97809.20
2018-02-23T23:43:51.183Z,97811.84
2018-02-23T23:46:20.213Z,97819.51
2018-02-23T23:48:48.485Z,97815.93
2018-02-23T23:51:16.762Z,97820.50
2018-02-23T23:53:45.832Z,97824.78
2018-02-23T23:56:14.131Z,97823.41
2018-02-23T23:58:42.436Z,97830.08
